ヴォルゴグラード の空港の天気 - METARとTAF

ヴォルゴグラード国際空港 ( URWW / VOG ) - ロシア ヴォルゴグラード
飛行場実況気象(Metar)
観測時間01/21 17:00 MSK (01/21 14:00 UTC)
風向・風速南 10m/s
視程7000m
天気現象
全天を覆う雲 雲底高度 120m
気温1℃
湿度93%
気圧1011hPa
METARURWW 211400Z 17010MPS 7000 OVC004 01/00 Q1011 R24/710150 TEMPO 0400 FZRA FZFG RMK OBST OBSC
過去の天気等 Google飛行場航空写真 Wunderground天気予報

過去48時間のMETAR

飛行場予報(TAF)
発表時間: 1/21 16:27 MSK (1/21 13:27 UTC)
予報対象時間: 21日16時 MSK ~ 22日0時 MSK
風向・風速南 10m/s 瞬間風速 16m/s
視程3100m
天気現象弱いしゅう雪雨 もや
全天を覆う雲 雲底高度 90m
全天の8割程度の積乱雲 雲底高度 610m
21日16時 MSK ~ 21日22時 MSK に一時的に
風向・風速南南西 8m/s 瞬間風速 14m/s
視程300m
天気現象氷雨 氷霧
全天を覆う雲 雲底高度 60m
全天の8割程度の積乱雲 雲底高度 610m
21日22時 MSK ~ 21日23時 MSK に徐々に
風向・風速北北西 9m/s 瞬間風速 15m/s
TAF AMD URWW 211327Z 2113/2121 17010G16MPS 3100 -SHSNRA BR OVC003 BKN020CB
TEMPO 2113/2119 20008G14MPS 0300 FZRA FZFG OVC002 BKN020CB
BECMG 2119/2120 34009G15MPS